Time;durP1;ratioP1;P1;durP2;ratioP2;P2;SDS_P1;SDS_P2;PMS_P1;PMS_P2;Temp;Humidity;BMP_temperature;BMP_pressure;BME280_temperature;BME280_humidity;BME280_pressure;Samples;Min_cycle;Max_cycle;Signal;HPM_P1;HPM_P2
2024/01/26 00:01:39;;;;;;;0.43;0.40;;;;;;;4.96;63.11;95506.59;5092065;28;20432;-56
2024/01/26 00:04:08;;;;;;;0.33;0.30;;;;;;;5.59;67.04;95580.22;5091914;28;20445;-57
2024/01/26 00:06:37;;;;;;;0.40;0.30;;;;;;;5.59;64.44;95572.34;5091266;28;20440;-56
2024/01/26 00:09:11;;;;;;;0.53;0.50;;;;;;;4.33;64.22;95372.63;5091615;28;20436;-56
2024/01/26 00:11:40;;;;;;;0.30;0.20;;;;;;;5.51;64.62;95562.97;5091135;28;20497;-56
2024/01/26 00:14:09;;;;;;;0.30;0.27;;;;;;;5.49;64.04;95574.75;5091821;28;20464;-57
2024/01/26 00:16:39;;;;;;;0.50;0.50;;;;;;;5.24;66.30;95529.53;5092324;28;20432;-56
2024/01/26 00:19:08;;;;;;;0.40;0.20;;;;;;;5.35;63.65;95568.13;5091610;28;20455;-56
2024/01/26 00:21:38;;;;;;;0.30;0.20;;;;;;;4.85;66.37;95584.34;5091507;28;20429;-56
2024/01/26 00:24:07;;;;;;;0.60;0.40;;;;;;;5.20;70.49;95580.94;5091476;28;20463;-55
2024/01/26 00:26:37;;;;;;;2.93;0.33;;;;;;;5.27;70.43;95578.97;5091869;28;20437;-55
2024/01/26 00:29:06;;;;;;;0.30;0.20;;;;;;;5.24;67.99;95569.72;5091983;28;20494;-55
2024/01/26 00:31:35;;;;;;;0.40;0.33;;;;;;;5.07;70.23;95545.19;5091460;28;20542;-56
2024/01/26 00:34:04;;;;;;;0.30;0.30;;;;;;;5.44;72.00;95574.66;5091617;28;20956;-55
2024/01/26 00:36:32;;;;;;;0.30;0.20;;;;;;;5.58;71.47;95573.34;5091664;28;20441;-55
2024/01/26 00:39:01;;;;;;;0.30;0.20;;;;;;;5.31;66.80;95538.91;5091562;28;20440;-55
2024/01/26 00:41:31;;;;;;;0.40;0.20;;;;;;;5.51;69.58;95578.75;5092206;28;20486;-56
2024/01/26 00:44:01;;;;;;;0.30;0.20;;;;;;;5.48;71.42;95570.53;5090985;28;20447;-55
2024/01/26 00:46:30;;;;;;;0.40;0.30;;;;;;;5.38;65.78;95572.94;5091541;28;20489;-55
2024/01/26 00:48:59;;;;;;;0.30;0.30;;;;;;;5.36;65.58;95580.25;5091404;28;20543;-55
2024/01/26 00:51:28;;;;;;;0.30;0.20;;;;;;;5.27;68.79;95566.66;5091686;28;20447;-57
2024/01/26 00:53:57;;;;;;;1.43;0.60;;;;;;;5.43;70.38;95583.56;5084159;28;20473;-55
2024/01/26 00:56:26;;;;;;;0.37;0.23;;;;;;;5.34;65.39;95577.06;5085572;28;20444;-57
2024/01/26 00:58:54;;;;;;;2.97;0.30;;;;;;;5.21;67.08;95567.59;5090525;28;20944;-56
2024/01/26 01:01:24;;;;;;;0.30;0.20;;;;;;;5.25;67.79;95573.16;5090936;28;20452;-57
2024/01/26 01:03:53;;;;;;;0.40;0.30;;;;;;;5.26;66.43;95570.31;5091317;28;20440;-56
2024/01/26 01:06:22;;;;;;;1.47;0.60;;;;;;;4.62;64.49;95580.88;5090636;28;20514;-56
2024/01/26 01:08:51;;;;;;;0.40;0.30;;;;;;;4.12;66.95;95585.66;5090690;28;20479;-56
2024/01/26 01:11:20;;;;;;;0.40;0.40;;;;;;;4.05;71.69;95503.66;5090895;28;20551;-56
2024/01/26 01:13:49;;;;;;;0.43;0.40;;;;;;;3.97;67.79;95574.75;5091274;28;20448;-56
2024/01/26 01:16:39;;;;;;;0.50;0.37;;;;;;;3.99;69.34;95588.44;5090811;28;20879;-56
2024/01/26 01:19:10;;;;;;;1.00;0.40;;;;;;;4.38;67.97;95580.81;5093959;28;20440;-56
2024/01/26 01:21:39;;;;;;;0.73;0.50;;;;;;;4.58;68.90;95588.41;5095421;28;20944;-56
2024/01/26 01:24:07;;;;;;;0.50;0.40;;;;;;;4.71;69.59;95592.66;5094795;28;20432;-56
2024/01/26 01:26:36;;;;;;;0.60;0.50;;;;;;;4.85;68.33;95592.25;5095069;28;20455;-56
2024/01/26 01:29:06;;;;;;;0.40;0.40;;;;;;;4.32;68.26;95516.16;5095014;28;20476;-56
2024/01/26 01:31:35;;;;;;;2.00;0.80;;;;;;;4.91;68.86;95587.88;5094702;28;20442;-57
2024/01/26 01:34:05;;;;;;;0.30;0.20;;;;;;;4.88;70.56;95575.22;5095115;28;20424;-55
2024/01/26 01:36:35;;;;;;;0.50;0.50;;;;;;;4.56;66.40;95530.09;5094878;28;20439;-56
2024/01/26 01:39:04;;;;;;;0.83;0.30;;;;;;;4.29;66.58;95597.13;5094315;28;20440;-55
2024/01/26 01:41:33;;;;;;;0.50;0.30;;;;;;;3.87;67.32;95588.41;5095178;28;20459;-56
2024/01/26 01:44:02;;;;;;;0.80;0.57;;;;;;;4.05;68.45;95584.94;5093694;28;20444;-57
2024/01/26 01:46:31;;;;;;;0.30;0.23;;;;;;;4.31;69.61;95593.25;5094655;28;20440;-56
2024/01/26 01:49:00;;;;;;;0.30;0.20;;;;;;;4.59;72.71;95584.75;5067841;28;20472;-56
2024/01/26 01:51:33;;;;;;;0.30;0.20;;;;;;;4.28;67.28;95585.81;5093243;28;20979;-56
2024/01/26 01:54:04;;;;;;;0.40;0.30;;;;;;;4.50;71.92;95560.66;5093733;28;20498;-57
2024/01/26 01:56:36;;;;;;;0.70;0.37;;;;;;;4.70;66.74;95576.13;5092971;28;20518;-57
2024/01/26 01:59:05;;;;;;;0.30;0.30;;;;;;;4.09;70.16;95474.13;5093545;28;20980;-56
2024/01/26 02:01:34;;;;;;;0.40;0.30;;;;;;;4.91;71.83;95582.63;5092913;28;20953;-56
2024/01/26 02:04:04;;;;;;;0.30;0.20;;;;;;;4.73;68.92;95575.63;5093823;28;20444;-56
2024/01/26 02:06:33;;;;;;;0.30;0.20;;;;;;;4.47;70.15;95563.75;5093752;28;20429;-57
2024/01/26 02:09:04;;;;;;;0.30;0.20;;;;;;;4.81;69.82;95577.13;5093783;28;20571;-57
2024/01/26 02:11:32;;;;;;;0.30;0.20;;;;;;;4.59;67.16;95574.25;5093601;28;20433;-56
2024/01/26 02:14:01;;;;;;;0.50;0.30;;;;;;;4.37;67.41;95549.56;5093325;28;20518;-56
2024/01/26 02:16:32;;;;;;;0.30;0.20;;;;;;;4.47;66.67;95570.81;5092775;28;20432;-56
2024/01/26 02:19:01;;;;;;;0.30;0.20;;;;;;;4.31;67.04;95566.19;5093032;28;20531;-56
2024/01/26 02:21:29;;;;;;;0.30;0.20;;;;;;;4.35;70.19;95554.25;5066661;28;20437;-56
2024/01/26 02:23:59;;;;;;;0.40;0.30;;;;;;;4.70;68.90;95593.69;5093168;28;20862;-55
2024/01/26 02:26:28;;;;;;;0.30;0.20;;;;;;;4.70;67.77;95576.13;5093451;28;20436;-56
2024/01/26 02:28:57;;;;;;;0.43;0.33;;;;;;;4.46;66.00;95553.47;5093522;28;20468;-56
2024/01/26 02:31:25;;;;;;;0.80;0.37;;;;;;;4.63;64.67;95572.78;5093235;28;20864;-56
2024/01/26 02:33:54;;;;;;;0.40;0.30;;;;;;;4.71;64.82;95576.91;5093884;28;20497;-56
2024/01/26 02:36:22;;;;;;;0.30;0.20;;;;;;;4.49;68.15;95577.44;5093546;28;20438;-56
2024/01/26 02:38:51;;;;;;;0.70;0.40;;;;;;;4.43;64.41;95572.28;5093065;28;20444;-56
2024/01/26 02:41:21;;;;;;;0.40;0.30;;;;;;;4.66;64.80;95574.94;5093050;28;20444;-55
2024/01/26 02:43:50;;;;;;;0.70;0.33;;;;;;;4.71;65.08;95574.28;5093393;28;20457;-55
2024/01/26 02:46:19;;;;;;;1.37;0.40;;;;;;;4.50;64.68;95576.41;5093108;28;20444;-55
2024/01/26 02:48:48;;;;;;;0.50;0.30;;;;;;;4.52;63.82;95552.56;5093189;28;21022;-56
2024/01/26 02:51:17;;;;;;;0.40;0.30;;;;;;;4.78;65.39;95580.25;5092661;28;20443;-56
2024/01/26 02:53:45;;;;;;;0.73;0.50;;;;;;;4.71;65.74;95585.56;5092628;28;20833;-56
2024/01/26 02:56:14;;;;;;;4.33;0.40;;;;;;;4.65;67.09;95580.44;5093037;28;20530;-57
2024/01/26 02:58:44;;;;;;;0.83;0.83;;;;;;;4.81;67.47;95587.63;5093146;28;20920;-56
2024/01/26 03:01:13;;;;;;;0.30;0.20;;;;;;;3.33;61.55;95429.41;5093318;28;20443;-56
2024/01/26 03:03:42;;;;;;;5.43;0.30;;;;;;;4.97;63.86;95582.53;5066413;28;20458;-56
2024/01/26 03:06:11;;;;;;;0.30;0.27;;;;;;;4.50;62.72;95579.03;5092615;28;20436;-55
2024/01/26 03:08:40;;;;;;;0.47;0.30;;;;;;;3.78;64.07;95574.78;5092762;28;20901;-56
2024/01/26 03:11:13;;;;;;;0.80;0.50;;;;;;;4.47;66.71;95591.81;5092415;28;20959;-55
2024/01/26 03:13:41;;;;;;;1.13;1.13;;;;;;;3.45;65.91;95597.13;5091907;28;20435;-56
2024/01/26 03:16:11;;;;;;;2.53;0.83;;;;;;;3.23;66.83;95581.03;5091808;28;20514;-56
2024/01/26 03:18:40;;;;;;;2.40;0.80;;;;;;;2.99;66.68;95487.63;5092997;28;20443;-57
2024/01/26 03:21:10;;;;;;;0.77;0.77;;;;;;;4.04;66.70;95591.19;5092491;28;20447;-56
2024/01/26 03:23:39;;;;;;;0.40;0.30;;;;;;;4.24;68.10;95596.97;5092010;28;20478;-57
2024/01/26 03:26:07;;;;;;;0.30;0.20;;;;;;;4.27;65.62;95594.72;5092940;28;20440;-57
2024/01/26 03:28:36;;;;;;;1.90;0.93;;;;;;;4.29;66.39;95597.13;5092656;28;20464;-56
2024/01/26 03:31:07;;;;;;;3.70;0.30;;;;;;;4.18;67.81;95574.25;5092332;28;20440;-56
2024/01/26 03:33:37;;;;;;;0.30;0.30;;;;;;;4.60;70.74;95588.19;5092528;28;20466;-56
2024/01/26 03:36:06;;;;;;;0.50;0.40;;;;;;;4.44;66.92;95566.00;5065806;28;20531;-57
2024/01/26 03:38:38;;;;;;;0.50;0.30;;;;;;;4.27;67.91;95584.22;5092236;28;20439;-56
2024/01/26 03:41:06;;;;;;;1.10;0.97;;;;;;;4.29;69.32;95591.88;5091679;28;20443;-57
2024/01/26 03:43:36;;;;;;;0.50;0.50;;;;;;;4.46;65.83;95587.56;5091576;28;20971;-56
2024/01/26 03:46:05;;;;;;;0.30;0.23;;;;;;;4.72;63.34;95587.19;5091800;28;20440;-57
2024/01/26 03:48:34;;;;;;;0.80;0.80;;;;;;;4.90;64.13;95592.34;5090190;28;20437;-57
2024/01/26 03:51:04;;;;;;;0.30;0.20;;;;;;;5.03;74.61;95581.59;5091319;28;20975;-56
2024/01/26 03:53:33;;;;;;;0.30;0.20;;;;;;;5.14;60.64;95588.69;5091029;28;20502;-56
2024/01/26 03:56:02;;;;;;;0.80;0.30;;;;;;;5.21;57.52;95587.81;5091920;28;20448;-56
2024/01/26 03:58:31;;;;;;;0.30;0.23;;;;;;;5.35;61.54;95583.91;5091131;28;20452;-56
2024/01/26 04:01:00;;;;;;;0.30;0.20;;;;;;;5.63;70.16;95589.25;5092210;28;20448;-56
2024/01/26 04:03:28;;;;;;;0.30;0.20;;;;;;;5.53;61.21;95581.13;5091840;28;20932;-56
2024/01/26 04:05:57;;;;;;;0.30;0.20;;;;;;;5.65;62.54;95589.81;5092037;28;21046;-56
2024/01/26 04:08:27;;;;;;;0.30;0.20;;;;;;;5.92;73.63;95590.91;5091924;28;20495;-56
2024/01/26 04:10:56;;;;;;;0.30;0.20;;;;;;;5.98;67.93;95590.00;5091947;28;20476;-57
2024/01/26 04:13:24;;;;;;;0.30;0.20;;;;;;;6.01;58.18;95591.34;5065427;28;20446;-57
2024/01/26 04:15:53;;;;;;;0.30;0.30;;;;;;;6.00;69.08;95579.22;5091468;28;20437;-56
2024/01/26 04:18:22;;;;;;;0.30;0.20;;;;;;;6.10;69.44;95589.94;5091660;28;20443;-57
2024/01/26 04:20:51;;;;;;;1.77;0.23;;;;;;;6.07;59.74;95585.94;5091088;28;20857;-56
2024/01/26 04:23:20;;;;;;;0.40;0.40;;;;;;;5.76;56.60;95531.13;5092011;28;20440;-56
2024/01/26 04:25:50;;;;;;;0.30;0.20;;;;;;;6.35;67.22;95600.94;5091390;28;20450;-56
2024/01/26 04:28:18;;;;;;;0.30;0.20;;;;;;;6.28;54.75;95598.47;5091318;28;20531;-56
2024/01/26 04:30:47;;;;;;;0.30;0.20;;;;;;;5.59;56.23;95593.38;5091531;28;20494;-56
2024/01/26 04:33:16;;;;;;;0.80;0.80;;;;;;;4.91;59.08;95599.19;5091564;28;20448;-56
2024/01/26 04:35:45;;;;;;;0.30;0.20;;;;;;;4.58;60.72;95596.28;5091207;28;20440;-56
2024/01/26 04:38:13;;;;;;;1.80;1.70;;;;;;;4.56;61.62;95600.94;5091528;28;20440;-56
2024/01/26 04:40:42;;;;;;;0.50;0.50;;;;;;;4.93;61.67;95604.22;5091295;28;20517;-56
2024/01/26 04:43:12;;;;;;;0.40;0.20;;;;;;;5.02;60.20;95595.78;5091752;28;20448;-56
2024/01/26 04:45:40;;;;;;;0.73;0.50;;;;;;;5.16;60.54;95599.00;5090543;28;20498;-56
2024/01/26 04:48:09;;;;;;;0.73;0.50;;;;;;;5.19;60.56;95600.38;5091198;28;20452;-56
2024/01/26 04:50:38;;;;;;;0.40;0.30;;;;;;;5.20;64.93;95583.56;5091322;28;20547;-56
2024/01/26 04:53:07;;;;;;;0.43;0.23;;;;;;;4.95;60.90;95596.94;5092390;28;20482;-56
2024/01/26 04:55:35;;;;;;;0.50;0.40;;;;;;;4.49;59.08;95553.81;5095564;28;20556;-56
2024/01/26 04:58:04;;;;;;;0.37;0.33;;;;;;;4.92;58.40;95602.63;5095152;28;20444;-57
2024/01/26 05:00:34;;;;;;;0.40;0.37;;;;;;;5.04;58.30;95604.22;5095205;28;20505;-57
2024/01/26 05:03:03;;;;;;;0.30;0.30;;;;;;;4.66;59.04;95616.97;5092295;28;20952;-56
2024/01/26 05:05:32;;;;;;;0.50;0.30;;;;;;;4.38;59.41;95608.88;5094723;28;20531;-57
2024/01/26 05:08:01;;;;;;;1.17;0.53;;;;;;;4.21;58.96;95602.66;5095028;28;20465;-56
2024/01/26 05:10:29;;;;;;;0.73;0.73;;;;;;;4.37;58.12;95602.06;5095196;28;20486;-57
2024/01/26 05:12:58;;;;;;;1.87;1.53;;;;;;;4.23;57.36;95616.34;5095232;28;20515;-57
2024/01/26 05:15:27;;;;;;;1.47;1.10;;;;;;;4.15;57.33;95612.22;5095519;28;20436;-56
2024/01/26 05:17:57;;;;;;;0.60;0.57;;;;;;;4.31;58.13;95608.97;5094836;28;20432;-56
2024/01/26 05:20:26;;;;;;;0.70;0.70;;;;;;;4.40;57.16;95605.00;5095396;28;20819;-57
2024/01/26 05:22:54;;;;;;;1.27;0.97;;;;;;;4.19;57.35;95576.66;5094679;28;20471;-58
2024/01/26 05:25:23;;;;;;;2.60;1.00;;;;;;;4.24;58.03;95612.72;5094511;28;20493;-57
2024/01/26 05:27:51;;;;;;;1.27;1.27;;;;;;;4.29;57.69;95607.59;5094292;28;21004;-57
2024/01/26 05:30:20;;;;;;;0.47;0.43;;;;;;;4.41;58.01;95618.94;5094822;28;20521;-57
2024/01/26 05:32:49;;;;;;;0.80;0.80;;;;;;;4.39;60.71;95618.38;5068272;28;20444;-57
2024/01/26 05:35:21;;;;;;;6.30;2.13;;;;;;;4.29;59.63;95595.28;5094412;28;20500;-55
2024/01/26 05:37:49;;;;;;;2.87;1.83;;;;;;;4.61;58.51;95608.16;5094562;28;20987;-56
2024/01/26 05:40:18;;;;;;;0.93;0.70;;;;;;;4.57;58.26;95601.75;5093738;28;21002;-56
2024/01/26 05:42:47;;;;;;;0.77;0.77;;;;;;;4.65;60.28;95607.50;5094262;28;20500;-56
2024/01/26 05:45:16;;;;;;;0.67;0.67;;;;;;;3.75;58.18;95472.97;5094344;28;20821;-57
2024/01/26 05:47:44;;;;;;;3.23;0.50;;;;;;;4.50;58.83;95594.00;5094532;28;20496;-57
2024/01/26 05:50:14;;;;;;;0.87;0.87;;;;;;;4.50;57.87;95602.66;5093071;28;20872;-57
2024/01/26 05:52:45;;;;;;;1.77;1.30;;;;;;;4.50;58.76;95615.00;5093983;28;20440;-56
2024/01/26 05:55:14;;;;;;;2.03;1.83;;;;;;;4.41;58.36;95611.06;5093135;28;20436;-57
2024/01/26 05:57:44;;;;;;;1.60;1.20;;;;;;;4.26;58.95;95615.91;5093349;28;20448;-56
2024/01/26 06:00:14;;;;;;;2.07;1.97;;;;;;;4.28;58.33;95608.63;5080033;28;20443;-56
2024/01/26 06:02:46;;;;;;;3.83;2.67;;;;;;;4.13;59.08;95605.59;5093787;28;20559;-56
2024/01/26 06:05:14;;;;;;;9.60;2.33;;;;;;;4.24;59.36;95608.28;5093613;28;20447;-56
2024/01/26 06:07:44;;;;;;;0.87;0.87;;;;;;;4.29;58.17;95563.81;5093133;28;20448;-56
2024/01/26 06:10:13;;;;;;;1.10;0.90;;;;;;;4.49;58.55;95582.69;5085105;28;20838;-56
2024/01/26 06:12:44;;;;;;;1.07;1.00;;;;;;;4.70;57.20;95594.50;5091187;28;20436;-59
2024/01/26 06:15:12;;;;;;;1.07;1.03;;;;;;;4.66;57.03;95600.41;5088669;28;20440;-56
2024/01/26 06:17:41;;;;;;;1.63;1.53;;;;;;;3.97;58.09;95570.31;5087150;28;20448;-56
2024/01/26 06:20:12;;;;;;;2.77;1.10;;;;;;;4.23;58.79;95608.47;5091382;28;20821;-56
2024/01/26 06:22:41;;;;;;;13.10;1.57;;;;;;;4.05;59.27;95600.69;5093768;28;20523;-56
2024/01/26 06:25:11;;;;;;;1.00;1.00;;;;;;;4.21;59.66;95605.28;5093098;28;20444;-56
2024/01/26 06:27:39;;;;;;;5.00;1.30;;;;;;;4.30;59.58;95594.25;5093165;28;20455;-56
2024/01/26 06:30:09;;;;;;;0.83;0.83;;;;;;;4.27;59.41;95588.66;5093500;28;20502;-56
2024/01/26 06:32:37;;;;;;;5.07;1.97;;;;;;;4.48;59.50;95599.44;5093199;28;20878;-56
2024/01/26 06:35:07;;;;;;;2.47;1.73;;;;;;;5.01;58.76;95604.69;5093647;28;20865;-56
2024/01/26 06:37:35;;;;;;;1.80;1.43;;;;;;;5.41;57.44;95598.75;5093179;28;20531;-56
2024/01/26 06:40:05;;;;;;;1.00;1.00;;;;;;;5.73;56.91;95608.66;5092818;28;20444;-56
2024/01/26 06:42:35;;;;;;;2.10;0.90;;;;;;;6.14;56.13;95593.72;5093192;28;20436;-57
2024/01/26 06:45:03;;;;;;;0.73;0.67;;;;;;;6.52;55.45;95612.34;5093157;28;20447;-57
2024/01/26 06:47:32;;;;;;;0.40;0.30;;;;;;;7.00;55.83;95598.66;5092268;28;20441;-56
2024/01/26 06:50:01;;;;;;;0.80;0.50;;;;;;;7.58;54.11;95604.25;5093433;28;20512;-56
2024/01/26 06:52:30;;;;;;;1.40;1.30;;;;;;;7.48;53.39;95617.31;5093150;28;20472;-57
2024/01/26 06:54:59;;;;;;;1.93;1.83;;;;;;;7.77;53.83;95604.00;5092986;28;20479;-57
2024/01/26 06:57:27;;;;;;;2.30;2.20;;;;;;;8.38;52.33;95613.44;5091966;28;20971;-56
2024/01/26 06:59:57;;;;;;;1.07;1.00;;;;;;;8.89;51.29;95591.75;5092930;28;20502;-56
2024/01/26 07:02:26;;;;;;;2.17;2.00;;;;;;;9.30;50.30;95604.25;5078354;28;20472;-56
2024/01/26 07:04:55;;;;;;;3.30;1.10;;;;;;;9.59;47.83;95599.41;5092290;28;20459;-55
2024/01/26 07:07:23;;;;;;;1.40;1.23;;;;;;;9.98;48.12;95599.88;5092658;28;20448;-56
2024/01/26 07:09:52;;;;;;;1.23;1.13;;;;;;;10.14;47.73;95567.16;5092251;28;20523;-55
2024/01/26 07:12:20;;;;;;;3.30;2.20;;;;;;;10.78;48.17;95605.44;5092226;28;20493;-55
2024/01/26 07:14:50;;;;;;;2.20;2.00;;;;;;;10.87;48.01;95612.88;5092837;28;20437;-55
2024/01/26 07:17:20;;;;;;;11.83;3.23;;;;;;;10.35;47.17;95480.59;5091780;28;20510;-55
2024/01/26 07:19:49;;;;;;;7.53;3.50;;;;;;;11.23;45.95;95591.41;5072277;28;20437;-56
2024/01/26 07:22:17;;;;;;;6.13;3.93;;;;;;;10.61;46.14;95541.28;5072419;28;20512;-56
2024/01/26 07:24:46;;;;;;;3.23;3.03;;;;;;;11.40;45.74;95613.19;5060759;28;20471;-56
2024/01/26 07:27:14;;;;;;;3.40;3.20;;;;;;;12.00;45.23;95614.94;5071897;28;20448;-56
2024/01/26 07:29:44;;;;;;;4.03;3.73;;;;;;;12.26;44.50;95620.97;5072181;28;20437;-56
2024/01/26 07:32:13;;;;;;;5.40;3.90;;;;;;;12.44;44.46;95599.09;5072002;28;20480;-56
2024/01/26 07:34:43;;;;;;;2.33;2.13;;;;;;;12.92;39.47;95605.47;5072012;28;20476;-56
2024/01/26 07:37:12;;;;;;;6.10;1.93;;;;;;;13.29;40.96;95591.63;5071199;28;20483;-55
2024/01/26 07:39:41;;;;;;;6.90;2.60;;;;;;;13.52;40.55;95593.56;5071793;28;20472;-55
2024/01/26 07:42:10;;;;;;;10.80;2.20;;;;;;;14.27;39.91;95602.63;5071484;28;20441;-55
2024/01/26 07:44:38;;;;;;;4.27;3.97;;;;;;;12.12;41.19;95572.13;5071954;28;20599;-55
2024/01/26 07:47:07;;;;;;;3.90;3.70;;;;;;;11.85;42.13;95598.25;5071749;28;20448;-55
2024/01/26 07:49:36;;;;;;;3.23;3.10;;;;;;;12.02;42.35;95610.16;5071436;28;20941;-56
2024/01/26 07:52:06;;;;;;;2.03;1.40;;;;;;;13.26;41.90;95613.50;5071779;28;20504;-56
2024/01/26 07:54:35;;;;;;;0.87;0.73;;;;;;;13.77;40.80;95564.03;5071303;28;20544;-56
2024/01/26 07:57:04;;;;;;;1.37;1.27;;;;;;;14.73;40.25;95613.53;5071270;28;20476;-57
2024/01/26 07:59:33;;;;;;;1.10;1.00;;;;;;;15.45;38.37;95596.22;5071504;28;20461;-57
2024/01/26 08:02:01;;;;;;;0.83;0.83;;;;;;;15.95;38.08;95631.94;5071515;28;20516;-57
2024/01/26 08:04:30;;;;;;;6.33;0.83;;;;;;;16.25;36.79;95623.34;5071049;28;20448;-57
2024/01/26 08:06:59;;;;;;;0.70;0.67;;;;;;;16.27;35.73;95623.84;5070479;28;20433;-57
2024/01/26 08:09:29;;;;;;;0.50;0.50;;;;;;;16.61;36.10;95622.66;5073764;28;20802;-57
2024/01/26 08:11:58;;;;;;;0.67;0.67;;;;;;;17.10;34.69;95628.03;5087719;28;20468;-57
2024/01/26 08:14:27;;;;;;;0.70;0.70;;;;;;;17.50;34.40;95621.72;5091159;28;20501;-57
2024/01/26 08:16:56;;;;;;;1.37;1.17;;;;;;;17.33;35.33;95629.63;5082215;28;20441;-59
2024/01/26 08:19:25;;;;;;;1.27;1.13;;;;;;;17.55;33.56;95618.94;5072066;28;20445;-59
2024/01/26 08:21:57;;;;;;;0.77;0.77;;;;;;;17.25;33.67;95589.38;5082212;28;20433;-61
2024/01/26 08:24:26;;;;;;;0.60;0.53;;;;;;;17.64;32.77;95597.53;5084355;28;21024;-60
2024/01/26 08:26:56;;;;;;;0.73;0.70;;;;;;;18.11;31.32;95612.97;5074815;28;20449;-60
2024/01/26 08:29:26;;;;;;;0.60;0.60;;;;;;;18.54;30.87;95612.34;5077731;28;20448;-60
2024/01/26 08:31:55;;;;;;;3.43;1.47;;;;;;;18.55;30.48;95606.66;5090569;28;20941;-59
2024/01/26 08:34:24;;;;;;;0.60;0.60;;;;;;;18.68;29.65;95567.34;5090995;28;20527;-58
2024/01/26 08:36:53;;;;;;;1.17;0.63;;;;;;;19.29;29.33;95609.28;5090465;28;20822;-57
2024/01/26 08:39:22;;;;;;;0.67;0.57;;;;;;;20.11;29.97;95582.09;5091361;28;20479;-59
2024/01/26 08:41:50;;;;;;;0.60;0.60;;;;;;;20.30;28.26;95582.50;5080416;28;21106;-58
2024/01/26 08:44:20;;;;;;;1.03;1.03;;;;;;;20.82;28.09;95613.41;5091114;28;20448;-59
2024/01/26 08:46:49;;;;;;;0.60;0.30;;;;;;;20.16;27.35;95612.28;5064680;28;20447;-57
2024/01/26 08:49:20;;;;;;;0.63;0.50;;;;;;;19.47;27.32;95613.56;5090575;28;20440;-56
2024/01/26 08:51:51;;;;;;;0.50;0.50;;;;;;;18.50;26.86;95606.78;5090943;28;20504;-57
2024/01/26 08:54:19;;;;;;;1.10;0.80;;;;;;;17.90;27.21;95605.75;5089486;28;20940;-56
2024/01/26 08:56:48;;;;;;;0.77;0.77;;;;;;;17.60;27.78;95608.09;5090940;28;20944;-56
2024/01/26 08:59:17;;;;;;;0.40;0.30;;;;;;;16.93;28.05;95615.28;5090706;28;20429;-55
2024/01/26 09:01:47;;;;;;;0.30;0.20;;;;;;;17.41;27.64;95614.69;5090790;28;20444;-57
2024/01/26 09:04:16;;;;;;;0.53;0.50;;;;;;;17.83;32.07;95605.38;5090570;28;20440;-55
2024/01/26 09:06:44;;;;;;;0.50;0.50;;;;;;;17.44;27.47;95609.53;5089950;28;20440;-56
2024/01/26 09:09:19;;;;;;;0.80;0.50;;;;;;;17.10;28.05;95610.06;5090383;28;20455;-56
2024/01/26 09:11:47;;;;;;;1.87;1.10;;;;;;;18.54;30.21;95602.41;5089903;28;20460;-56
2024/01/26 09:14:16;;;;;;;0.40;0.40;;;;;;;19.23;25.93;95611.31;5086777;28;20861;-55
2024/01/26 09:16:51;;;;;;;0.57;0.30;;;;;;;18.38;26.96;95596.63;5088490;28;20428;-56
2024/01/26 09:19:20;;;;;;;0.40;0.27;;;;;;;18.42;26.33;95604.84;5076153;28;20868;-56
2024/01/26 09:21:50;;;;;;;0.60;0.40;;;;;;;17.76;26.45;95601.25;5070528;28;20495;-56
2024/01/26 09:24:19;;;;;;;0.40;0.20;;;;;;;17.47;27.72;95597.41;5069718;28;20508;-55
2024/01/26 09:26:49;;;;;;;0.67;0.67;;;;;;;17.01;27.69;95598.50;5070504;28;20448;-56
2024/01/26 09:29:18;;;;;;;0.77;0.77;;;;;;;17.30;27.61;95597.31;5070407;28;20441;-55
2024/01/26 09:31:48;;;;;;;0.40;0.30;;;;;;;16.28;28.50;95558.56;5070539;28;20864;-55
2024/01/26 09:34:17;;;;;;;1.70;0.67;;;;;;;16.86;27.38;95525.75;5063869;28;20440;-55
2024/01/26 09:36:46;;;;;;;0.63;0.63;;;;;;;17.86;28.58;95594.06;5090273;28;20592;-55
2024/01/26 09:39:14;;;;;;;0.63;0.63;;;;;;;18.40;27.23;95585.59;5092085;28;20531;-56
2024/01/26 09:41:43;;;;;;;0.50;0.50;;;;;;;17.92;26.72;95587.44;5094378;28;20436;-55
2024/01/26 09:44:12;;;;;;;2.00;1.07;;;;;;;16.30;27.75;95559.06;5094204;28;20450;-56
2024/01/26 09:46:41;;;;;;;1.10;1.03;;;;;;;17.44;27.21;95593.47;5094087;28;20444;-55
2024/01/26 09:49:12;;;;;;;0.60;0.60;;;;;;;17.45;27.71;95587.00;5093885;28;20436;-56
2024/01/26 09:51:41;;;;;;;0.60;0.43;;;;;;;17.95;27.51;95584.16;5093377;28;20444;-56
2024/01/26 09:54:12;;;;;;;0.40;0.30;;;;;;;18.47;27.72;95585.94;5082852;28;20496;-56
2024/01/26 09:56:42;;;;;;;7.70;0.50;;;;;;;18.40;26.26;95569.47;5091457;28;20438;-56
2024/01/26 09:59:12;;;;;;;0.40;0.30;;;;;;;19.76;25.74;95567.19;5084923;28;20436;-55
2024/01/26 10:01:41;;;;;;;0.70;0.40;;;;;;;18.56;26.50;95583.28;5093159;28;20539;-56
2024/01/26 10:04:12;;;;;;;0.40;0.30;;;;;;;19.30;25.54;95570.53;5093587;28;20442;-56
2024/01/26 10:06:41;;;;;;;0.50;0.40;;;;;;;19.49;24.87;95565.63;5093545;28;20493;-56
2024/01/26 10:09:12;;;;;;;0.80;0.30;;;;;;;18.32;25.05;95580.97;5094086;28;20828;-56
2024/01/26 10:11:41;;;;;;;1.33;1.07;;;;;;;18.34;25.02;95570.75;5092725;28;20472;-55
2024/01/26 10:14:09;;;;;;;1.80;0.50;;;;;;;19.60;26.02;95573.06;5093648;28;20476;-56
2024/01/26 10:16:38;;;;;;;0.40;0.20;;;;;;;18.89;25.62;95579.06;5067186;28;20444;-56
2024/01/26 10:19:07;;;;;;;0.30;0.20;;;;;;;18.36;25.55;95539.00;5093386;28;20444;-55
2024/01/26 10:21:37;;;;;;;0.43;0.30;;;;;;;18.23;27.14;95572.13;5090079;28;20448;-56
2024/01/26 10:24:10;;;;;;;0.37;0.27;;;;;;;19.19;25.64;95563.91;5093850;28;20439;-56
2024/01/26 10:26:39;;;;;;;0.40;0.30;;;;;;;18.44;25.55;95567.78;5093116;28;20882;-56
2024/01/26 10:29:10;;;;;;;0.40;0.20;;;;;;;20.47;24.58;95563.56;5093268;28;20896;-55
2024/01/26 10:31:40;;;;;;;4.77;0.30;;;;;;;21.30;28.56;95555.56;5093509;28;20437;-55
2024/01/26 10:34:14;;;;;;;0.40;0.20;;;;;;;19.12;24.48;95552.84;5092953;28;20478;-55
2024/01/26 10:36:47;;;;;;;0.40;0.30;;;;;;;19.48;24.65;95547.94;5093483;28;20428;-55
2024/01/26 10:39:22;;;;;;;0.40;0.40;;;;;;;19.13;24.83;95543.66;5093018;28;20474;-56
2024/01/26 10:41:52;;;;;;;0.50;0.30;;;;;;;19.59;25.41;95535.72;5093056;28;20504;-55
2024/01/26 10:44:22;;;;;;;0.60;0.30;;;;;;;18.92;24.38;95530.88;5090256;28;20846;-54
2024/01/26 10:46:53;;;;;;;0.50;0.40;;;;;;;19.25;24.93;95543.84;5086022;28;20512;-55
2024/01/26 10:49:24;;;;;;;0.30;0.20;;;;;;;18.87;24.67;95528.34;5093172;28;20448;-55
2024/01/26 10:51:56;;;;;;;0.40;0.40;;;;;;;19.99;23.48;95526.25;5090952;28;20439;-54
2024/01/26 10:54:26;;;;;;;0.63;0.63;;;;;;;20.67;23.35;95538.56;5092758;28;20487;-55
2024/01/26 10:56:54;;;;;;;0.33;0.20;;;;;;;20.23;23.64;95531.09;5093009;28;20515;-55
2024/01/26 10:59:24;;;;;;;0.40;0.30;;;;;;;20.34;23.48;95528.81;5092835;28;20463;-56
2024/01/26 11:01:54;;;;;;;0.30;0.30;;;;;;;21.66;22.72;95523.31;5092203;28;20447;-55
2024/01/26 11:04:24;;;;;;;0.40;0.30;;;;;;;21.33;22.25;95517.13;5092180;28;20436;-56
2024/01/26 11:06:55;;;;;;;3.40;0.30;;;;;;;20.81;23.39;95506.00;5091927;28;20440;-55
2024/01/26 11:09:24;;;;;;;0.30;0.20;;;;;;;19.78;24.11;95519.22;5092589;28;20497;-55
2024/01/26 11:11:53;;;;;;;0.30;0.20;;;;;;;20.66;23.87;95490.44;5092029;28;20440;-56
2024/01/26 11:14:27;;;;;;;0.40;0.30;;;;;;;20.40;22.85;95508.66;5092249;28;20475;-55
2024/01/26 11:17:09;;;;;;;0.30;0.30;;;;;;;21.74;22.69;95505.44;5092238;28;20451;-56
2024/01/26 11:19:38;;;;;;;8.80;0.50;;;;;;;21.14;22.71;95508.75;5092543;28;20459;-55
2024/01/26 11:22:09;;;;;;;0.30;0.20;;;;;;;21.18;22.29;95480.00;5092409;28;20522;-56
2024/01/26 11:24:37;;;;;;;0.30;0.20;;;;;;;20.24;23.49;95503.03;5092094;28;20444;-56
2024/01/26 11:27:06;;;;;;;0.50;0.40;;;;;;;18.95;23.87;95499.91;5091705;28;20436;-55
2024/01/26 11:29:36;;;;;;;0.40;0.20;;;;;;;20.43;22.73;95506.09;5091273;28;20444;-55
2024/01/26 11:32:16;;;;;;;0.40;0.30;;;;;;;20.07;22.59;95451.97;5091682;28;20781;-55
2024/01/26 11:34:45;;;;;;;0.40;0.20;;;;;;;20.23;25.18;95504.97;5092020;28;20476;-56
2024/01/26 11:37:15;;;;;;;0.40;0.30;;;;;;;20.22;23.41;95481.03;5091415;28;20448;-55
2024/01/26 11:39:44;;;;;;;0.40;0.40;;;;;;;21.05;22.46;95486.47;5091983;28;20999;-55
2024/01/26 11:42:13;;;;;;;0.30;0.20;;;;;;;19.59;23.12;95450.47;5091154;28;20472;-55
2024/01/26 11:44:42;;;;;;;0.30;0.20;;;;;;;19.46;24.24;95477.56;5091994;28;20440;-55
2024/01/26 11:47:12;;;;;;;0.50;0.50;;;;;;;19.70;23.84;95485.09;5091441;28;20489;-55
2024/01/26 11:49:42;;;;;;;0.70;0.33;;;;;;;19.64;23.59;95476.41;5091878;28;20437;-54